Time;durP1;ratioP1;P1;durP2;ratioP2;P2;SDS_P1;SDS_P2;PMS_P1;PMS_P2;Temp;Humidity;BMP_temperature;BMP_pressure;BME280_temperature;BME280_humidity;BME280_pressure;Samples;Min_cycle;Max_cycle;Signal;HPM_P1;HPM_P2
2022/02/26 00:00:26;;;;;;;6.50;2.28;;;;;;;17.85;37.57;102325.38;4919078;29;20071;-77
2022/02/26 00:02:52;;;;;;;7.80;2.15;;;;;;;17.84;37.45;102312.69;4919124;29;20030;-77
2022/02/26 00:05:18;;;;;;;6.80;1.65;;;;;;;17.96;37.49;102307.31;4918891;29;20463;-77
2022/02/26 00:07:43;;;;;;;6.00;2.60;;;;;;;17.87;37.77;102304.53;4935999;29;20039;-78
2022/02/26 00:10:09;;;;;;;6.32;1.52;;;;;;;17.85;37.95;102306.81;4935963;29;20398;-77
2022/02/26 00:12:35;;;;;;;8.80;1.60;;;;;;;17.99;37.57;102301.13;4918962;29;20036;-78
2022/02/26 00:15:01;;;;;;;7.18;1.98;;;;;;;18.03;37.68;102307.63;4935993;29;20023;-78
2022/02/26 00:17:27;;;;;;;4.43;1.45;;;;;;;17.99;37.65;102307.47;4935924;29;20042;-77
2022/02/26 00:19:52;;;;;;;4.80;1.60;;;;;;;18.05;37.77;102293.47;4935817;29;20112;-77
2022/02/26 00:22:18;;;;;;;5.93;1.30;;;;;;;18.13;37.68;102296.22;4935932;29;20028;-78
2022/02/26 00:24:44;;;;;;;5.55;1.73;;;;;;;18.16;37.55;102292.81;4935786;29;20514;-78
2022/02/26 00:27:09;;;;;;;7.47;2.65;;;;;;;18.24;37.38;102300.31;4918720;29;20083;-77
2022/02/26 00:29:35;;;;;;;3.15;1.40;;;;;;;18.29;37.50;102291.84;4935648;29;20040;-77
2022/02/26 00:32:02;;;;;;;8.93;2.75;;;;;;;18.41;37.28;102285.63;4935752;29;20032;-77
2022/02/26 00:34:29;;;;;;;4.55;1.20;;;;;;;18.37;37.51;102278.31;4935650;29;20043;-77
2022/02/26 00:36:55;;;;;;;8.60;2.25;;;;;;;18.45;37.40;102272.75;4935674;29;20028;-77
2022/02/26 00:39:20;;;;;;;5.45;1.65;;;;;;;18.50;37.41;102272.56;4935620;29;20113;-78
2022/02/26 00:41:46;;;;;;;5.47;1.42;;;;;;;18.30;37.57;102279.63;4935418;29;20030;-77
2022/02/26 00:44:12;;;;;;;8.57;1.35;;;;;;;18.39;37.43;102271.31;4935568;29;20063;-77
2022/02/26 00:46:38;;;;;;;10.15;1.67;;;;;;;18.53;37.23;102271.13;4918442;29;20095;-77
2022/02/26 00:51:49;;;;;;;8.23;2.10;;;;;;;18.58;37.26;102259.84;4935463;29;20131;-79
2022/02/26 00:54:14;;;;;;;4.88;1.40;;;;;;;18.55;37.42;102263.28;4935293;29;20027;-78
2022/02/26 00:56:41;;;;;;;10.88;1.85;;;;;;;18.57;37.31;102255.44;4935367;29;20038;-78
2022/02/26 00:59:07;;;;;;;4.78;1.88;;;;;;;18.60;37.23;102257.56;4935306;29;20036;-78
2022/02/26 01:01:33;;;;;;;4.47;1.77;;;;;;;18.51;37.40;102252.06;4934455;29;20031;-78
2022/02/26 01:03:58;;;;;;;6.05;1.88;;;;;;;18.55;37.20;102246.69;4935286;29;20035;-78
2022/02/26 01:06:24;;;;;;;11.65;1.63;;;;;;;18.69;36.91;102257.56;4935131;29;20044;-77
2022/02/26 01:08:51;;;;;;;7.57;1.40;;;;;;;18.70;37.11;102251.69;4935127;29;20063;-77
2022/02/26 01:11:17;;;;;;;4.30;1.33;;;;;;;18.71;36.95;102245.00;4918182;29;20035;-77
2022/02/26 01:13:42;;;;;;;5.80;1.85;;;;;;;18.77;36.83;102243.69;4918089;29;20031;-77
2022/02/26 01:16:08;;;;;;;4.22;1.20;;;;;;;18.68;36.84;102231.84;4935169;29;20459;-78
2022/02/26 01:18:34;;;;;;;10.27;1.77;;;;;;;18.70;36.78;102237.03;4935130;29;20111;-77
2022/02/26 01:20:59;;;;;;;4.75;1.60;;;;;;;18.70;36.62;102240.63;4935027;29;20024;-77
2022/02/26 01:23:25;;;;;;;5.70;1.45;;;;;;;18.67;36.65;102226.66;4917805;29;20028;-77
2022/02/26 01:25:50;;;;;;;5.13;2.00;;;;;;;18.48;36.99;102224.22;4935258;29;20514;-77
2022/02/26 01:28:16;;;;;;;5.25;1.63;;;;;;;18.63;36.60;102226.44;4934565;29;20035;-77
2022/02/26 01:30:42;;;;;;;4.43;1.70;;;;;;;18.73;36.27;102217.78;4935001;29;20118;-77
2022/02/26 01:33:07;;;;;;;4.65;1.23;;;;;;;18.80;36.22;102212.56;4917986;29;20027;-77
2022/02/26 01:35:33;;;;;;;6.40;1.20;;;;;;;18.83;36.01;102211.09;4935042;29;20102;-78
2022/02/26 01:37:59;;;;;;;4.70;1.48;;;;;;;18.69;36.30;102208.56;4935029;29;20027;-78
2022/02/26 01:40:24;;;;;;;7.18;1.55;;;;;;;18.77;35.82;102210.47;4934981;29;20111;-77
2022/02/26 01:42:50;;;;;;;5.85;1.40;;;;;;;18.43;36.48;102205.84;4934876;29;20090;-77
2022/02/26 01:45:18;;;;;;;5.03;1.23;;;;;;;18.68;35.63;102212.47;4934915;29;20443;-79
2022/02/26 01:47:44;;;;;;;3.38;1.25;;;;;;;18.65;35.69;102207.53;4934903;29;20055;-77
2022/02/26 01:50:13;;;;;;;3.10;1.50;;;;;;;18.55;35.82;102207.94;4934821;29;20074;-77
2022/02/26 01:52:40;;;;;;;6.97;1.65;;;;;;;18.60;35.80;102204.97;4934884;29;20110;-78
2022/02/26 01:55:06;;;;;;;5.53;1.20;;;;;;;18.43;35.99;102197.53;4934943;29;20447;-77
2022/02/26 01:57:32;;;;;;;7.05;1.80;;;;;;;18.57;35.71;102200.91;4934736;29;20122;-78
2022/02/26 01:59:58;;;;;;;5.70;1.10;;;;;;;18.35;36.00;102200.34;4934821;29;20107;-77
2022/02/26 02:02:24;;;;;;;3.35;1.27;;;;;;;18.64;35.53;102203.16;4934808;29;20434;-78
2022/02/26 02:04:52;;;;;;;4.15;1.17;;;;;;;18.70;35.46;102207.41;4934541;29;20063;-77
2022/02/26 02:07:18;;;;;;;5.20;1.42;;;;;;;18.84;35.02;102196.09;4934560;29;20394;-78
2022/02/26 02:09:44;;;;;;;4.30;1.13;;;;;;;18.80;35.17;102184.88;4934720;29;20122;-77
2022/02/26 02:12:10;;;;;;;4.60;1.10;;;;;;;18.89;35.15;102193.13;4934821;29;20038;-78
2022/02/26 02:14:36;;;;;;;6.07;1.42;;;;;;;18.90;35.10;102178.16;4937790;29;20111;-78
2022/02/26 02:17:03;;;;;;;4.38;1.15;;;;;;;18.75;35.21;102175.97;4938207;29;20046;-77
2022/02/26 02:19:29;;;;;;;2.97;1.30;;;;;;;18.82;35.23;102173.47;4938153;29;20102;-77
2022/02/26 02:21:55;;;;;;;6.85;1.00;;;;;;;18.77;35.17;102171.69;4938083;29;20443;-78
2022/02/26 02:24:21;;;;;;;5.35;1.40;;;;;;;18.57;35.11;102167.69;4938132;29;20040;-77
2022/02/26 02:26:48;;;;;;;7.05;1.33;;;;;;;18.62;35.31;102169.47;4937894;29;20028;-77
2022/02/26 02:29:13;;;;;;;5.80;1.33;;;;;;;18.78;35.05;102162.25;4937875;29;20035;-77
2022/02/26 02:31:39;;;;;;;5.82;2.00;;;;;;;18.69;35.03;102153.19;4938019;29;20034;-77
2022/02/26 02:34:05;;;;;;;4.63;1.10;;;;;;;18.82;34.81;102162.41;4920748;29;20140;-77
2022/02/26 02:36:31;;;;;;;7.68;2.03;;;;;;;18.82;34.82;102154.91;4937841;29;20032;-78
2022/02/26 02:38:57;;;;;;;4.82;1.48;;;;;;;18.78;34.92;102148.41;4920704;29;20063;-77
2022/02/26 02:41:23;;;;;;;7.05;1.52;;;;;;;18.71;34.93;102150.06;4937751;29;20091;-78
2022/02/26 02:43:50;;;;;;;5.30;1.77;;;;;;;18.58;35.19;102152.69;4937768;29;20038;-77
2022/02/26 02:46:16;;;;;;;5.45;1.10;;;;;;;18.57;35.29;102150.25;4920657;29;20035;-78
2022/02/26 02:48:41;;;;;;;5.63;1.58;;;;;;;18.60;35.27;102144.09;4937291;29;20087;-78
2022/02/26 02:51:07;;;;;;;7.57;1.63;;;;;;;18.60;35.00;102154.34;4937535;29;20036;-77
2022/02/26 02:53:33;;;;;;;6.93;1.35;;;;;;;18.55;35.09;102141.50;4937460;29;20039;-78
2022/02/26 02:55:59;;;;;;;4.03;1.08;;;;;;;18.55;35.09;102144.25;4937440;29;20150;-77
2022/02/26 02:58:27;;;;;;;5.40;1.60;;;;;;;18.59;35.14;102139.69;4937459;29;20035;-77
2022/02/26 03:00:54;;;;;;;5.00;1.40;;;;;;;18.45;35.21;102139.09;4937348;29;20494;-77
2022/02/26 03:03:20;;;;;;;5.32;1.95;;;;;;;18.43;35.34;102128.34;4937379;29;20024;-79
2022/02/26 03:05:46;;;;;;;5.55;1.50;;;;;;;18.44;35.22;102131.91;4937038;29;20492;-79
2022/02/26 03:08:12;;;;;;;3.33;1.20;;;;;;;18.43;35.52;102127.53;4937312;29;20024;-77
2022/02/26 03:10:37;;;;;;;5.40;1.38;;;;;;;18.25;35.66;102122.09;4937090;29;20039;-77
2022/02/26 03:13:03;;;;;;;7.40;1.67;;;;;;;18.18;35.67;102124.56;4937011;29;20028;-77
2022/02/26 03:15:29;;;;;;;6.68;1.52;;;;;;;18.25;35.51;102124.03;4937199;29;20441;-79
2022/02/26 03:17:55;;;;;;;7.25;1.75;;;;;;;18.14;35.72;102109.78;4937085;29;20032;-77
2022/02/26 03:20:21;;;;;;;5.95;1.52;;;;;;;18.16;35.50;102113.00;4937158;29;20038;-77
2022/02/26 03:22:47;;;;;;;6.60;1.90;;;;;;;18.12;35.63;102105.69;4936991;29;20039;-78
2022/02/26 03:25:15;;;;;;;9.80;2.60;;;;;;;18.03;35.70;102094.66;4936083;29;20057;-77
2022/02/26 03:27:40;;;;;;;6.80;2.08;;;;;;;17.93;35.71;102089.50;4936979;29;20078;-78
2022/02/26 03:30:08;;;;;;;8.80;1.95;;;;;;;17.92;35.84;102090.66;4936766;29;20036;-78
2022/02/26 03:32:34;;;;;;;4.93;1.33;;;;;;;17.94;36.05;102093.91;4936736;29;20487;-78
2022/02/26 03:35:00;;;;;;;7.53;1.65;;;;;;;17.81;35.96;102086.59;4936554;29;20039;-77
2022/02/26 03:37:27;;;;;;;9.55;1.95;;;;;;;17.91;35.67;102092.63;4919648;29;20032;-77
2022/02/26 03:39:54;;;;;;;4.18;1.30;;;;;;;17.82;35.98;102093.75;4936547;29;20028;-77
2022/02/26 03:42:20;;;;;;;4.38;1.27;;;;;;;17.91;35.67;102086.25;4919467;29;20127;-77
2022/02/26 03:44:49;;;;;;;9.02;1.55;;;;;;;17.83;35.88;102076.03;4919504;29;20118;-77
2022/02/26 03:47:18;;;;;;;5.45;1.30;;;;;;;17.76;36.01;102076.56;4936569;29;20035;-78
2022/02/26 03:49:46;;;;;;;7.27;1.90;;;;;;;17.79;36.33;102072.31;4919130;29;20046;-77
2022/02/26 03:52:12;;;;;;;5.90;1.20;;;;;;;17.72;35.89;102073.63;4936445;29;20459;-77
2022/02/26 03:54:38;;;;;;;7.60;1.30;;;;;;;17.79;35.81;102075.88;4936397;29;20038;-78
2022/02/26 03:57:03;;;;;;;7.43;1.73;;;;;;;17.82;35.89;102079.94;4936351;29;20102;-78
2022/02/26 03:59:29;;;;;;;5.00;1.30;;;;;;;17.83;35.47;102068.53;4919181;29;20094;-78
2022/02/26 04:01:55;;;;;;;7.70;1.70;;;;;;;17.84;35.62;102067.41;4936189;29;20036;-78
2022/02/26 04:04:20;;;;;;;7.97;1.70;;;;;;;17.77;35.66;102063.53;4918738;29;20036;-77
2022/02/26 04:06:46;;;;;;;4.63;1.13;;;;;;;17.86;35.49;102056.03;4936160;29;20107;-77
2022/02/26 04:09:12;;;;;;;5.40;1.25;;;;;;;17.89;35.39;102055.34;4935891;29;20402;-78
2022/02/26 04:11:38;;;;;;;5.63;1.25;;;;;;;17.88;35.27;102050.97;4918970;29;20067;-77
2022/02/26 04:14:03;;;;;;;4.30;1.00;;;;;;;17.81;35.23;102056.19;4935989;29;20032;-77
2022/02/26 04:16:29;;;;;;;5.65;1.35;;;;;;;17.79;35.23;102047.44;4918935;29;20031;-79
2022/02/26 04:18:55;;;;;;;4.93;1.02;;;;;;;17.93;35.04;102036.97;4935549;29;20066;-77
2022/02/26 04:21:22;;;;;;;5.28;1.25;;;;;;;17.98;34.88;102065.22;4935771;29;20055;-78
2022/02/26 04:23:47;;;;;;;4.78;1.40;;;;;;;17.72;35.25;102043.22;4918617;29;20041;-76
2022/02/26 04:26:13;;;;;;;5.47;1.48;;;;;;;17.86;34.91;102054.06;4918517;29;20113;-77
2022/02/26 04:28:39;;;;;;;8.23;1.23;;;;;;;17.83;35.00;102045.59;4918707;29;20490;-77
2022/02/26 04:31:05;;;;;;;5.93;1.60;;;;;;;18.00;34.61;102048.34;4935573;29;20042;-77
2022/02/26 04:33:30;;;;;;;6.25;1.50;;;;;;;18.00;34.52;102035.31;4935390;29;20036;-78
2022/02/26 04:35:58;;;;;;;7.20;1.67;;;;;;;18.21;34.23;102040.91;4935534;29;20032;-77
2022/02/26 04:38:23;;;;;;;7.60;1.38;;;;;;;18.23;33.90;102035.03;4918537;29;20059;-77
2022/02/26 04:40:49;;;;;;;6.05;1.25;;;;;;;18.10;34.28;102028.59;4935630;29;20027;-77
2022/02/26 04:43:15;;;;;;;2.10;1.02;;;;;;;18.17;34.05;102036.38;4935533;29;20028;-77
2022/02/26 04:45:40;;;;;;;4.07;1.30;;;;;;;18.24;34.04;102031.13;4935549;29;20526;-77
2022/02/26 04:48:06;;;;;;;4.35;1.73;;;;;;;18.23;33.79;102029.50;4935492;29;20371;-78
2022/02/26 04:50:31;;;;;;;5.00;1.85;;;;;;;18.33;33.86;102023.59;4935390;29;20423;-77
2022/02/26 04:52:57;;;;;;;7.53;1.90;;;;;;;18.10;34.19;102028.59;4935455;29;20028;-79
2022/02/26 04:55:23;;;;;;;10.63;2.22;;;;;;;18.11;34.16;102023.88;4935448;29;20019;-77
2022/02/26 04:57:48;;;;;;;3.92;1.00;;;;;;;18.21;33.97;102009.66;4917945;29;20574;-77
2022/02/26 05:00:14;;;;;;;8.43;1.48;;;;;;;18.15;34.11;102000.75;4935383;29;20028;-79
2022/02/26 05:02:41;;;;;;;5.78;1.52;;;;;;;18.28;33.79;102005.22;4935383;29;20032;-77
2022/02/26 05:05:07;;;;;;;6.35;1.13;;;;;;;18.16;34.04;101991.31;4935146;29;20071;-78
2022/02/26 05:07:33;;;;;;;3.58;1.08;;;;;;;18.37;33.96;101985.00;4935227;29;20067;-77
2022/02/26 05:09:59;;;;;;;4.03;1.20;;;;;;;18.50;33.59;101994.97;4935225;29;20042;-77
2022/02/26 05:12:25;;;;;;;8.98;2.45;;;;;;;18.35;33.89;101978.97;4935324;29;20024;-77
2022/02/26 05:14:50;;;;;;;4.43;1.30;;;;;;;18.43;33.93;101983.63;4935281;29;20020;-77
2022/02/26 05:17:17;;;;;;;6.82;1.60;;;;;;;18.35;33.84;101984.50;4935180;29;20507;-77
2022/02/26 05:19:42;;;;;;;3.13;1.20;;;;;;;18.51;33.67;101986.38;4935183;29;20032;-78
2022/02/26 05:22:08;;;;;;;4.90;1.20;;;;;;;18.48;33.82;101987.03;4918191;29;20038;-77
2022/02/26 05:24:33;;;;;;;4.47;1.30;;;;;;;18.54;33.81;101984.88;4935203;29;20024;-78
2022/02/26 05:26:59;;;;;;;4.80;1.52;;;;;;;18.50;33.89;101989.44;4935110;29;20024;-77
2022/02/26 05:29:25;;;;;;;5.72;0.93;;;;;;;18.48;34.06;101986.22;4934980;29;20490;-78
2022/02/26 05:31:50;;;;;;;3.03;0.90;;;;;;;18.48;34.04;101981.50;4935167;29;20059;-77
2022/02/26 05:34:17;;;;;;;5.43;1.20;;;;;;;18.50;34.09;101972.84;4935131;29;20475;-79
2022/02/26 05:36:43;;;;;;;2.97;1.15;;;;;;;18.44;34.07;101972.25;4935732;29;20027;-78
2022/02/26 05:39:09;;;;;;;6.38;1.35;;;;;;;18.23;34.51;101971.41;4917553;29;20070;-77
2022/02/26 05:41:35;;;;;;;6.40;1.35;;;;;;;18.21;34.82;101963.47;4934981;29;20079;-77
2022/02/26 05:44:01;;;;;;;14.57;1.25;;;;;;;18.13;35.22;101961.53;4934967;29;20427;-77
2022/02/26 05:46:27;;;;;;;7.88;2.45;;;;;;;18.22;35.18;101948.47;4934944;29;20091;-77
2022/02/26 05:48:53;;;;;;;3.03;1.27;;;;;;;18.17;35.30;101954.19;4936796;29;20043;-77
2022/02/26 05:51:18;;;;;;;5.55;1.10;;;;;;;18.29;35.15;101945.19;4938015;29;20035;-77
2022/02/26 05:53:44;;;;;;;5.47;1.35;;;;;;;18.38;34.97;101956.19;4938525;29;20431;-77
2022/02/26 05:56:10;;;;;;;4.40;1.02;;;;;;;18.21;35.32;101944.09;4938447;29;20103;-77
2022/02/26 05:58:35;;;;;;;4.15;1.20;;;;;;;18.20;35.19;101945.22;4921352;29;20538;-77
2022/02/26 06:01:01;;;;;;;3.15;1.10;;;;;;;18.10;35.66;101956.69;4938481;29;20039;-77
2022/02/26 06:03:27;;;;;;;4.78;1.40;;;;;;;18.03;35.74;101951.66;4938268;29;20542;-78
2022/02/26 06:05:52;;;;;;;10.18;1.45;;;;;;;18.14;35.35;101956.84;4938308;29;20130;-78
2022/02/26 06:08:18;;;;;;;5.47;1.15;;;;;;;18.07;35.52;101954.59;4938309;29;20103;-78
2022/02/26 06:10:44;;;;;;;5.35;1.27;;;;;;;17.97;36.00;101946.66;4938167;29;20530;-77
2022/02/26 06:13:09;;;;;;;2.67;0.85;;;;;;;18.04;35.80;101944.19;4938262;29;20031;-78
2022/02/26 06:15:35;;;;;;;5.97;1.73;;;;;;;18.06;35.87;101946.59;4938273;29;20023;-77
2022/02/26 06:18:01;;;;;;;3.90;1.50;;;;;;;18.12;35.57;101948.03;4938121;29;20039;-75
2022/02/26 06:20:26;;;;;;;6.03;1.30;;;;;;;18.09;35.84;101955.06;4938061;29;20042;-76
2022/02/26 06:22:52;;;;;;;6.53;1.38;;;;;;;18.13;35.92;101944.94;4937242;29;20035;-76
2022/02/26 06:25:19;;;;;;;3.65;0.85;;;;;;;18.23;35.78;101957.59;4920649;29;20031;-78
2022/02/26 06:27:45;;;;;;;4.75;1.30;;;;;;;18.14;36.08;101957.66;4938065;29;20019;-75
2022/02/26 06:30:12;;;;;;;8.20;2.00;;;;;;;18.24;36.19;101957.25;4920653;29;20067;-78
2022/02/26 06:32:38;;;;;;;5.65;1.70;;;;;;;18.13;36.30;101964.28;4937847;29;20028;-77
2022/02/26 06:35:09;;;;;;;4.15;1.20;;;;;;;18.09;36.38;101957.81;4937911;29;20387;-76
2022/02/26 06:37:35;;;;;;;7.93;2.42;;;;;;;18.08;36.65;101958.16;4920559;29;20114;-77
2022/02/26 06:40:00;;;;;;;4.47;1.63;;;;;;;18.14;36.44;101948.53;4920419;29;20599;-77
2022/02/26 06:42:26;;;;;;;6.68;1.55;;;;;;;18.12;36.79;101956.34;4920453;29;20372;-77
2022/02/26 06:44:52;;;;;;;10.75;1.50;;;;;;;18.27;36.76;101953.78;4920585;29;20039;-77
2022/02/26 06:47:18;;;;;;;5.18;1.00;;;;;;;18.38;36.55;101953.41;4937574;29;20479;-77
2022/02/26 06:49:44;;;;;;;6.78;1.25;;;;;;;18.45;36.71;101946.19;4937427;29;20034;-77
2022/02/26 06:52:10;;;;;;;6.70;1.73;;;;;;;18.17;37.34;101950.63;4937566;29;20023;-77
2022/02/26 06:54:35;;;;;;;3.28;0.80;;;;;;;18.36;37.08;101950.16;4920179;29;20027;-78
2022/02/26 06:57:01;;;;;;;9.15;1.90;;;;;;;18.29;37.16;101934.94;4920400;29;20032;-77
2022/02/26 06:59:27;;;;;;;5.30;1.35;;;;;;;18.48;37.02;101936.41;4936224;29;20434;-77
2022/02/26 07:01:53;;;;;;;6.00;1.40;;;;;;;18.43;37.17;101923.56;4920289;29;20024;-78
2022/02/26 07:04:19;;;;;;;2.50;0.90;;;;;;;18.39;37.12;101910.75;4937420;29;20066;-77
2022/02/26 07:06:45;;;;;;;4.53;1.73;;;;;;;18.49;36.86;101910.34;4937350;29;20557;-78
2022/02/26 07:09:14;;;;;;;2.72;1.10;;;;;;;18.14;37.69;101907.84;4936898;29;20038;-77
2022/02/26 07:11:41;;;;;;;4.13;1.38;;;;;;;18.40;36.95;101913.19;4919161;29;20035;-78
2022/02/26 07:14:07;;;;;;;6.63;1.30;;;;;;;18.27;37.11;101903.19;4937170;29;20106;-79
2022/02/26 07:16:33;;;;;;;7.70;1.80;;;;;;;18.29;37.22;101901.72;4937014;29;20501;-79
2022/02/26 07:19:00;;;;;;;3.15;1.30;;;;;;;18.15;37.42;101901.16;4919125;29;20028;-78
2022/02/26 07:21:26;;;;;;;4.38;1.27;;;;;;;18.20;37.19;101902.91;4919623;29;20031;-78
2022/02/26 07:23:56;;;;;;;3.90;1.52;;;;;;;18.39;36.89;101892.19;4936618;29;20085;-78
2022/02/26 07:26:26;;;;;;;4.95;1.25;;;;;;;18.25;36.96;101899.97;4936775;29;20034;-78
2022/02/26 07:28:51;;;;;;;9.82;1.67;;;;;;;18.42;36.71;101863.03;4936890;29;20106;-79
2022/02/26 07:31:17;;;;;;;3.80;0.80;;;;;;;18.36;36.70;101878.22;4919649;29;20115;-79
2022/02/26 07:33:43;;;;;;;3.92;1.15;;;;;;;18.38;36.70;101881.47;4936776;29;20028;-79
2022/02/26 07:36:09;;;;;;;6.93;1.20;;;;;;;18.27;36.53;101873.56;4936729;29;20483;-78
2022/02/26 07:38:38;;;;;;;3.47;0.90;;;;;;;18.53;36.05;101873.34;4936542;29;20035;-78
2022/02/26 07:41:06;;;;;;;9.18;2.10;;;;;;;18.48;36.18;101875.50;4936618;29;20078;-79
2022/02/26 07:43:32;;;;;;;5.68;1.23;;;;;;;18.27;36.47;101872.75;4936601;29;20035;-78
2022/02/26 07:45:58;;;;;;;3.65;1.52;;;;;;;18.37;36.45;101874.31;4936544;29;20395;-78
2022/02/26 07:48:24;;;;;;;3.60;1.15;;;;;;;18.56;36.15;101866.31;4919213;29;20032;-78
2022/02/26 07:50:49;;;;;;;7.28;1.33;;;;;;;18.54;36.07;101872.19;4936308;29;20491;-79
2022/02/26 07:53:15;;;;;;;3.63;1.48;;;;;;;18.65;35.98;101880.88;4936356;29;20019;-78
2022/02/26 07:55:40;;;;;;;3.60;0.98;;;;;;;18.61;35.64;101874.44;4936189;29;20023;-80
2022/02/26 07:58:06;;;;;;;5.10;1.02;;;;;;;18.68;35.89;101880.25;4936322;29;20028;-79
2022/02/26 08:00:33;;;;;;;6.75;1.75;;;;;;;18.61;36.07;101870.84;4936382;29;20074;-78
2022/02/26 08:03:00;;;;;;;6.10;1.50;;;;;;;18.74;35.68;101883.59;4936175;29;20030;-78
2022/02/26 08:05:27;;;;;;;6.38;2.20;;;;;;;18.71;35.68;101871.25;4935715;29;20080;-78
2022/02/26 08:07:53;;;;;;;7.32;2.20;;;;;;;18.74;35.71;101883.59;4936105;29;20118;-78
2022/02/26 08:10:21;;;;;;;9.30;1.80;;;;;;;18.78;35.79;101874.28;4935761;29;20439;-79
2022/02/26 08:12:51;;;;;;;5.68;1.45;;;;;;;18.41;36.51;101878.00;4936055;29;20024;-79
2022/02/26 08:15:21;;;;;;;7.30;1.48;;;;;;;18.53;36.05;101872.56;4936101;29;20595;-78
2022/02/26 08:17:47;;;;;;;7.50;1.35;;;;;;;18.48;36.25;101870.78;4935959;29;20035;-79
2022/02/26 08:20:15;;;;;;;6.13;1.73;;;;;;;18.81;35.61;101890.19;4935898;29;20038;-78
2022/02/26 08:22:41;;;;;;;5.65;1.70;;;;;;;18.87;35.52;101879.72;4935977;29;20035;-78
2022/02/26 08:25:08;;;;;;;8.20;2.10;;;;;;;19.05;35.21;101895.03;4935797;29;20611;-78
2022/02/26 08:27:34;;;;;;;5.32;1.20;;;;;;;18.89;35.54;101888.50;4935769;29;20032;-78
2022/02/26 08:30:00;;;;;;;4.88;1.13;;;;;;;18.74;35.62;101878.91;4935775;29;20028;-77
2022/02/26 08:32:25;;;;;;;12.23;1.65;;;;;;;18.86;35.79;101875.34;4935747;29;20102;-77
2022/02/26 08:34:51;;;;;;;8.55;2.03;;;;;;;18.95;35.24;101878.81;4918606;29;20475;-78
2022/02/26 08:37:16;;;;;;;5.88;1.23;;;;;;;18.62;35.51;101866.94;4935595;29;20562;-78
2022/02/26 08:39:42;;;;;;;13.30;2.35;;;;;;;18.53;35.62;101864.25;4935673;29;20039;-78
2022/02/26 08:42:08;;;;;;;7.97;1.40;;;;;;;18.54;35.66;101850.06;4935482;29;20028;-78
2022/02/26 08:44:34;;;;;;;11.20;1.42;;;;;;;18.88;35.08;101859.19;4935556;29;20595;-78
2022/02/26 08:47:00;;;;;;;18.83;2.88;;;;;;;18.60;35.71;101867.28;4935429;29;20032;-78
2022/02/26 08:49:26;;;;;;;4.10;1.13;;;;;;;18.72;35.39;101852.69;4935498;29;20032;-77
2022/02/26 08:51:52;;;;;;;18.95;3.30;;;;;;;18.96;34.90;101863.00;4935519;29;20059;-78
2022/02/26 08:54:18;;;;;;;10.45;1.95;;;;;;;18.74;35.13;101842.91;4935490;29;20066;-77
2022/02/26 08:56:45;;;;;;;5.35;1.55;;;;;;;19.03;34.62;101863.25;4935185;29;20031;-77
2022/02/26 08:59:11;;;;;;;21.23;2.97;;;;;;;19.07;34.51;101853.13;4935413;29;20680;-77
2022/02/26 09:01:38;;;;;;;7.45;1.52;;;;;;;19.00;34.90;101863.97;4935286;29;20039;-77
2022/02/26 09:04:04;;;;;;;28.38;5.45;;;;;;;18.97;34.55;101857.16;4918422;29;20042;-77
2022/02/26 09:06:29;;;;;;;7.35;1.63;;;;;;;19.01;34.67;101857.25;4935159;29;20047;-80
2022/02/26 09:08:55;;;;;;;6.88;1.60;;;;;;;19.19;34.25;101858.66;4934644;29;20035;-74
2022/02/26 09:11:21;;;;;;;7.00;1.88;;;;;;;19.34;34.29;101857.97;4934878;29;20034;-78
2022/02/26 09:13:47;;;;;;;12.23;3.08;;;;;;;19.35;34.33;101856.84;4934999;29;20054;-75
2022/02/26 09:16:14;;;;;;;15.38;2.45;;;;;;;19.43;34.35;101865.41;4935159;29;20110;-74
2022/02/26 09:18:40;;;;;;;11.45;2.75;;;;;;;19.21;34.65;101850.84;4935155;29;20028;-74
2022/02/26 09:21:06;;;;;;;16.17;3.03;;;;;;;19.23;34.67;101859.59;4934351;29;20394;-79
2022/02/26 09:23:32;;;;;;;12.40;2.83;;;;;;;19.40;34.37;101848.28;4936939;29;20386;-77
2022/02/26 09:25:58;;;;;;;11.13;2.30;;;;;;;19.26;34.52;101849.78;4921726;29;20024;-77
2022/02/26 09:28:24;;;;;;;6.90;1.48;;;;;;;19.18;34.54;101823.00;4937787;29;20043;-77
2022/02/26 09:30:50;;;;;;;23.77;5.15;;;;;;;19.28;34.15;101840.00;4938918;29;20483;-78
2022/02/26 09:33:15;;;;;;;10.73;2.33;;;;;;;19.31;34.26;101833.75;4939009;29;20028;-78
2022/02/26 09:35:41;;;;;;;8.27;1.63;;;;;;;19.39;34.30;101829.25;4939004;29;20102;-77
2022/02/26 09:38:08;;;;;;;7.22;1.85;;;;;;;19.17;34.68;101827.72;4938418;29;20039;-79
2022/02/26 09:40:34;;;;;;;10.35;2.65;;;;;;;19.31;34.55;101824.63;4920807;29;20513;-78
2022/02/26 09:43:00;;;;;;;6.93;1.27;;;;;;;19.16;34.94;101828.09;4937049;29;20024;-79
2022/02/26 09:45:26;;;;;;;9.13;1.50;;;;;;;19.33;34.60;101825.88;4937327;29;20031;-80
2022/02/26 09:47:52;;;;;;;7.75;1.98;;;;;;;19.40;34.51;101828.88;4937549;29;20171;-80
2022/02/26 09:50:18;;;;;;;15.63;2.88;;;;;;;19.26;34.71;101824.84;4920238;29;20147;-79
2022/02/26 09:52:48;;;;;;;14.85;3.38;;;;;;;19.29;35.03;101827.75;4920388;29;20027;-79
2022/02/26 09:55:13;;;;;;;6.78;2.50;;;;;;;19.52;34.60;101818.97;4934943;29;20028;-83
2022/02/26 09:57:40;;;;;;;6.80;1.40;;;;;;;19.58;34.56;101818.41;4937434;29;20030;-79
2022/02/26 10:00:09;;;;;;;8.05;1.85;;;;;;;19.50;34.64;101824.06;4938286;29;20031;-78
2022/02/26 10:02:37;;;;;;;4.15;0.93;;;;;;;19.26;34.70;101805.44;4938562;29;20028;-76
2022/02/26 10:05:06;;;;;;;15.80;3.20;;;;;;;19.35;34.41;101804.19;4938187;29;20070;-78
2022/02/26 10:07:33;;;;;;;8.48;2.15;;;;;;;19.59;34.00;101808.13;4937641;29;20067;-76
2022/02/26 10:09:59;;;;;;;5.18;1.80;;;;;;;19.59;34.00;101806.19;4938100;29;20036;-77
2022/02/26 10:12:30;;;;;;;7.43;1.45;;;;;;;19.45;34.15;101805.69;4921184;29;20028;-77
2022/02/26 10:14:58;;;;;;;15.38;4.10;;;;;;;19.86;33.49;101807.38;4938277;29;20050;-78
2022/02/26 10:17:38;;;;;;;14.35;2.25;;;;;;;19.81;33.51;101810.41;4938093;29;20031;-78
2022/02/26 10:20:23;;;;;;;6.20;1.65;;;;;;;19.69;33.70;101804.88;4938168;29;20415;-78
2022/02/26 10:22:51;;;;;;;22.92;5.22;;;;;;;19.67;33.59;101798.88;4938088;29;20035;-79
2022/02/26 10:25:27;;;;;;;4.22;1.20;;;;;;;19.76;33.38;101810.66;4938155;29;20034;-74
2022/02/26 10:27:58;;;;;;;6.05;2.10;;;;;;;19.85;33.40;101786.34;4938263;29;20028;-78
2022/02/26 10:30:32;;;;;;;20.63;4.45;;;;;;;19.62;33.54;101783.28;4937989;29;20420;-79
2022/02/26 10:33:09;;;;;;;18.38;3.08;;;;;;;19.67;33.45;101774.75;4937071;29;20032;-75
2022/02/26 10:35:56;;;;;;;22.60;3.80;;;;;;;19.79;33.57;101776.66;4901818;29;20079;-71
2022/02/26 10:38:24;;;;;;;29.38;6.45;;;;;;;20.15;33.02;101788.81;4918850;29;20059;-76
2022/02/26 10:41:07;;;;;;;21.75;3.53;;;;;;;20.27;33.09;101793.50;4918697;29;20031;-75
2022/02/26 10:43:42;;;;;;;16.25;2.63;;;;;;;20.06;33.41;101788.16;4918638;29;20028;-74
2022/02/26 10:46:23;;;;;;;10.10;2.58;;;;;;;20.49;33.11;101802.09;4918677;29;20076;-74
2022/02/26 10:48:57;;;;;;;13.15;4.25;;;;;;;20.26;33.32;101803.81;4917277;29;20462;-78
2022/02/26 10:51:28;;;;;;;10.00;3.70;;;;;;;20.32;33.45;101807.13;4930308;29;20015;-74
2022/02/26 10:53:55;;;;;;;8.38;2.20;;;;;;;20.49;33.16;101810.44;4935956;29;20027;-74
2022/02/26 10:56:30;;;;;;;16.42;3.03;;;;;;;20.44;33.10;101820.97;4937420;29;20035;-77
2022/02/26 10:58:56;;;;;;;9.90;2.83;;;;;;;20.25;33.23;101813.25;4936033;29;20024;-74
2022/02/26 11:01:22;;;;;;;8.02;1.90;;;;;;;20.32;32.95;101799.59;4937255;29;20027;-74
2022/02/26 11:03:47;;;;;;;6.70;1.73;;;;;;;20.32;33.02;101790.47;4937334;29;20024;-75
2022/02/26 11:06:14;;;;;;;25.10;4.30;;;;;;;20.16;32.98;101793.19;4936955;29;20052;-75
2022/02/26 11:08:42;;;;;;;16.50;3.03;;;;;;;20.20;32.55;101796.88;4937106;29;20024;-76
2022/02/26 11:11:08;;;;;;;8.48;2.22;;;;;;;19.93;32.63;101792.91;4936995;29;20078;-76
2022/02/26 11:13:37;;;;;;;11.32;1.70;;;;;;;19.69;32.66;101802.09;4937096;29;20055;-74
2022/02/26 11:16:04;;;;;;;28.52;4.18;;;;;;;20.07;32.25;101798.09;4937052;29;20028;-75
2022/02/26 11:18:53;;;;;;;12.95;2.97;;;;;;;20.13;32.21;101797.50;4936982;29;20071;-74
2022/02/26 11:21:21;;;;;;;50.97;10.02;;;;;;;20.12;32.34;101787.56;4930720;29;20043;-74
2022/02/26 11:23:48;;;;;;;9.10;1.50;;;;;;;20.30;32.10;101782.50;4936483;29;20086;-74